Abbeville, MS

4:00 PM CDT on September 01, 2014 (GMT -0500)
Tunica | Change Station
CLOSE
Current Station
Airport
Location: Tunica,
Elevation: 194 ft
Nearby Weather Stations

Elev 194 ft 34.68 °N, 90.35 °W | Updated 5 minutes ago

Scattered Clouds
Scattered Clouds
90 °F
Feels Like 96 °F
N
13
Wind Variable Wind from South
Gusts 16 mph

Today
High -- | Low -- °F
--% Chance of Precip.
Yesterday
High -- | Low -- °F
Precip. -- in
6:31 AM 7:24 PM
Waxing Crescent, 44% visible
Pressure 29.98 in
Visibility 10.0 miles
Clouds Scattered Clouds 4000 ft
Heat Index 96 °F
Dew Point 72 °F
Humidity 55%
Rainfall 0.02 in
Snow Depth Not available.
UV 5 out of 12
Pollen 10.10 out of 12
Air Quality Not available.
Flu Activity Not available.
METAR KUTA 012055Z AUTO 18011G14KT 10SM SCT040 32/22 A2998 RMK AO2 TSNO

More Conditions Fewer Conditions

Pressure 29.98 in
Visibility 10.0 miles
Clouds Scattered Clouds 4000 ft
Heat Index 96 °F
Dew Point 72 °F
Humidity 55%
Rainfall 0.02 in
Snow Depth Not available.
UV 5 out of 12
Pollen 10.10 out of 12
Air Quality Not available.
Flu Activity Not available.
METAR KUTA 012055Z AUTO 18011G14KT 10SM SCT040 32/22 A2998 RMK AO2 TSNO

More Conditions Fewer Conditions

10-Day Weather Forecast

Almanac

Astronomy

Sep. 01, 2014 Rise Set
Actual Time 6:31 AM CDT 7:24 PM CDT
Civil Twilight 6:05 AM CDT 7:50 PM CDT
Nautical Twilight 5:35 AM CDT 8:20 PM CDT
Astronomical Twilight 5:04 AM CDT 8:51 PM CDT
Moon 1:00 PM CDT 11:43 PM CDT
Length of Visible Light 13h 44m
Length of Day
12h 52m
Tomorrow will be 2m 4s shorter.
Waxing Crescent, 44% of the Moon is Illuminated
Today
Waxing Crescent
Sep 2
First Quarter
Sep 8
Full
Sep 15
Last Quarter
Sep 24
New

Today's Extremes

State Highs State Lows

Community

WunderPhotos

Upload Photos

1,749,407 photos uploaded!

WunderBlogs® & News

Nearby

Snow Depth

Station Depth Elevation
No new snow has been reported.

Earthquake Activity

City Distance Mag. Time & Date
Tiptonville, Tennessee 132 miles 2.9 11:19 PM CDT
2014-08-31
Minimum magnitude displayed is 2.5.

Coastal Water Temperatures

Place Temperature
No Stations Reporting

Nearby Weather Stations